Time;durP1;ratioP1;P1;durP2;ratioP2;P2;SDS_P1;SDS_P2;PMS_P1;PMS_P2;Temp;Humidity;BMP_temperature;BMP_pressure;BME280_temperature;BME280_humidity;BME280_pressure;Samples;Min_cycle;Max_cycle;Signal;HPM_P1;HPM_P2
2024/01/20 00:02:26;;;;;;;18.67;12.32;;;;;;;16.27;42.58;102644.56;4944652;29;20047;-43
2024/01/20 00:04:53;;;;;;;19.50;12.82;;;;;;;16.21;42.42;102634.25;4943853;28;20052;-43
2024/01/20 00:07:20;;;;;;;18.85;12.60;;;;;;;16.18;41.75;102642.47;4947693;29;20158;-43
2024/01/20 00:09:46;;;;;;;19.88;12.38;;;;;;;16.11;41.52;102639.31;4948858;29;20687;-43
2024/01/20 00:12:18;;;;;;;17.65;11.80;;;;;;;16.04;42.73;102643.38;4941704;29;20048;-43
2024/01/20 00:14:44;;;;;;;17.60;11.85;;;;;;;15.98;42.67;102649.09;4942879;29;20439;-43
2024/01/20 00:17:11;;;;;;;20.42;12.13;;;;;;;15.91;42.64;102650.41;4946544;28;20086;-42
2024/01/20 00:19:51;;;;;;;18.52;11.82;;;;;;;15.86;41.94;102647.19;4938815;28;20048;-42
2024/01/20 00:22:20;;;;;;;17.38;11.45;;;;;;;15.79;42.51;102639.53;4949570;29;20043;-43
2024/01/20 00:24:48;;;;;;;17.40;11.77;;;;;;;15.74;42.39;102641.63;4947045;29;20073;-43
2024/01/20 00:27:15;;;;;;;18.33;11.27;;;;;;;15.69;42.75;102648.22;4948603;29;20053;-42
2024/01/20 00:29:42;;;;;;;15.15;10.57;;;;;;;15.62;41.97;102639.69;4947654;28;20058;-43
2024/01/20 00:32:09;;;;;;;19.13;11.23;;;;;;;15.63;42.67;102652.06;4947097;29;20502;-43
2024/01/20 00:34:36;;;;;;;16.48;10.73;;;;;;;15.66;42.90;102646.59;4949696;29;20051;-42
2024/01/20 00:37:23;;;;;;;15.07;10.35;;;;;;;15.73;42.08;102653.28;4948375;29;20059;-43
2024/01/20 00:39:49;;;;;;;15.75;10.85;;;;;;;15.81;41.96;102639.44;4945626;29;20077;-43
2024/01/20 00:42:16;;;;;;;17.63;11.20;;;;;;;15.88;41.89;102648.81;4944869;28;20062;-43
2024/01/20 00:44:43;;;;;;;18.20;11.20;;;;;;;15.95;41.53;102650.13;4945269;29;20134;-43
2024/01/20 00:47:09;;;;;;;15.55;10.32;;;;;;;16.05;42.13;102645.06;4946289;28;20047;-43
2024/01/20 00:49:36;;;;;;;14.68;10.48;;;;;;;16.13;41.58;102652.63;4945353;29;20055;-43
2024/01/20 00:52:03;;;;;;;14.68;9.20;;;;;;;16.18;41.07;102646.00;4945910;29;20110;-43
2024/01/20 00:54:30;;;;;;;15.23;10.20;;;;;;;16.23;41.59;102643.03;4948147;29;20090;-43
2024/01/20 00:56:56;;;;;;;17.17;10.65;;;;;;;16.27;41.90;102649.91;4945219;28;20079;-43
2024/01/20 00:59:23;;;;;;;17.20;9.73;;;;;;;16.29;42.11;102659.56;4946948;29;20055;-43
2024/01/20 01:01:50;;;;;;;14.90;9.95;;;;;;;16.29;40.73;102654.22;4946553;28;20047;-43
2024/01/20 01:04:16;;;;;;;14.43;9.70;;;;;;;16.25;40.78;102654.50;4942895;29;20156;-43
2024/01/20 01:06:43;;;;;;;14.48;9.10;;;;;;;16.20;41.92;102649.47;4942913;28;20103;-43
2024/01/20 01:09:10;;;;;;;13.95;9.45;;;;;;;16.15;41.03;102659.56;4943279;28;20428;-43
2024/01/20 01:11:36;;;;;;;15.00;10.07;;;;;;;16.09;41.27;102657.28;4944305;29;20444;-42
2024/01/20 01:14:03;;;;;;;16.42;9.65;;;;;;;16.06;41.28;102657.47;4943735;29;20110;-41
2024/01/20 01:16:30;;;;;;;15.25;10.23;;;;;;;15.99;42.15;102661.50;4945831;29;20047;-43
2024/01/20 01:18:56;;;;;;;14.65;9.95;;;;;;;15.95;42.37;102665.31;4944574;28;20059;-43
2024/01/20 01:21:23;;;;;;;14.00;9.82;;;;;;;15.90;42.02;102656.72;4945936;29;20431;-42
2024/01/20 01:23:50;;;;;;;13.88;9.38;;;;;;;15.86;42.28;102657.88;4940118;29;20060;-42
2024/01/20 01:26:17;;;;;;;14.50;10.10;;;;;;;15.81;41.79;102660.84;4944366;29;20066;-42
2024/01/20 01:28:44;;;;;;;15.35;9.40;;;;;;;15.76;42.29;102666.47;4945810;29;20047;-43
2024/01/20 01:31:11;;;;;;;14.10;9.90;;;;;;;15.70;42.12;102672.16;4943210;29;20704;-43
2024/01/20 01:33:38;;;;;;;13.95;9.57;;;;;;;15.65;41.65;102668.94;4946109;28;20348;-43
2024/01/20 01:36:05;;;;;;;15.18;9.80;;;;;;;15.62;42.09;102678.91;4946590;28;20055;-43
2024/01/20 01:38:32;;;;;;;14.10;9.68;;;;;;;15.60;41.86;102671.00;4949083;28;20054;-42
2024/01/20 01:40:58;;;;;;;13.57;9.55;;;;;;;15.58;41.49;102667.53;4946095;28;20101;-42
2024/01/20 01:43:25;;;;;;;13.63;9.45;;;;;;;15.62;41.96;102679.78;4947481;28;20066;-43
2024/01/20 01:45:52;;;;;;;12.93;8.73;;;;;;;15.69;42.47;102681.16;4945671;29;20106;-43
2024/01/20 01:48:19;;;;;;;13.98;8.95;;;;;;;15.77;42.36;102678.88;4945983;29;20051;-43
2024/01/20 01:50:48;;;;;;;12.77;8.77;;;;;;;15.84;41.98;102678.47;4946071;28;20051;-42
2024/01/20 01:53:15;;;;;;;11.82;8.63;;;;;;;15.91;41.27;102685.19;4943394;29;20089;-43
2024/01/20 01:55:43;;;;;;;12.52;8.70;;;;;;;15.97;42.02;102687.50;4946310;29;20069;-43
2024/01/20 01:58:10;;;;;;;13.43;9.20;;;;;;;16.08;41.17;102694.81;4946774;29;20051;-43
2024/01/20 02:00:37;;;;;;;13.73;9.10;;;;;;;16.12;41.14;102683.88;4944416;29;20135;-42
2024/01/20 02:03:04;;;;;;;12.38;8.70;;;;;;;16.16;41.05;102681.81;4945020;28;20051;-43
2024/01/20 02:05:31;;;;;;;12.52;8.93;;;;;;;16.18;40.80;102677.25;4944255;29;20058;-43
2024/01/20 02:07:58;;;;;;;14.85;9.55;;;;;;;16.20;40.95;102683.34;4944277;28;20102;-43
2024/01/20 02:10:25;;;;;;;14.63;9.85;;;;;;;16.18;41.58;102682.59;4946386;28;20051;-43
2024/01/20 02:12:53;;;;;;;11.93;8.35;;;;;;;16.17;40.87;102681.75;4947610;28;20051;-43
2024/01/20 02:15:20;;;;;;;13.30;8.85;;;;;;;16.14;40.93;102686.44;4944470;28;20047;-43
2024/01/20 02:17:53;;;;;;;14.90;9.30;;;;;;;16.11;41.19;102691.97;4945106;29;20055;-43
2024/01/20 02:20:22;;;;;;;14.77;9.25;;;;;;;16.08;40.99;102682.34;4943435;28;20051;-42
2024/01/20 02:22:49;;;;;;;13.63;8.95;;;;;;;16.03;41.70;102679.91;4944854;28;20047;-42
2024/01/20 02:25:15;;;;;;;14.05;9.40;;;;;;;15.97;40.83;102674.97;4943697;29;20079;-42
2024/01/20 02:27:42;;;;;;;13.98;9.43;;;;;;;15.93;40.80;102676.13;4943207;29;20113;-43
2024/01/20 02:30:09;;;;;;;14.35;9.13;;;;;;;15.87;40.88;102673.81;4945090;28;20363;-43
2024/01/20 02:32:36;;;;;;;14.43;9.57;;;;;;;15.84;41.38;102681.16;4945696;29;20113;-43
2024/01/20 02:35:03;;;;;;;15.60;9.55;;;;;;;15.78;41.48;102685.94;4943655;29;20067;-44
2024/01/20 02:37:30;;;;;;;13.35;8.90;;;;;;;15.77;41.64;102683.38;4943027;29;20141;-42
2024/01/20 02:39:57;;;;;;;15.23;9.80;;;;;;;15.75;42.00;102685.25;4944885;28;20569;-43
2024/01/20 02:42:24;;;;;;;13.25;8.38;;;;;;;15.74;41.39;102695.09;4946685;29;20091;-43
2024/01/20 02:44:51;;;;;;;14.05;9.40;;;;;;;15.78;41.04;102687.75;4942888;29;20098;-42
2024/01/20 02:47:19;;;;;;;13.70;9.02;;;;;;;15.83;41.67;102691.00;4944913;28;20468;-43
2024/01/20 02:49:45;;;;;;;15.70;9.77;;;;;;;15.88;40.94;102696.06;4946974;29;20074;-43
2024/01/20 02:52:12;;;;;;;12.70;8.50;;;;;;;15.94;41.11;102696.53;4942825;28;20057;-43
2024/01/20 02:54:39;;;;;;;14.25;8.65;;;;;;;16.01;40.57;102695.22;4946698;28;20079;-43
2024/01/20 02:57:05;;;;;;;12.70;8.90;;;;;;;16.08;40.71;102694.81;4947798;29;20273;-43
2024/01/20 02:59:33;;;;;;;14.23;9.13;;;;;;;16.14;40.79;102697.13;4945214;28;20062;-44
2024/01/20 03:02:02;;;;;;;16.00;9.80;;;;;;;16.17;40.53;102700.47;4944096;29;20070;-43
2024/01/20 03:04:29;;;;;;;13.63;9.32;;;;;;;16.19;40.28;102700.38;4943406;29;20324;-42
2024/01/20 03:06:55;;;;;;;15.13;8.90;;;;;;;16.19;40.92;102693.19;4944612;29;20542;-43
2024/01/20 03:09:22;;;;;;;15.10;9.57;;;;;;;16.17;40.26;102708.50;4944365;29;20106;-43
2024/01/20 03:11:49;;;;;;;12.82;9.13;;;;;;;16.14;41.04;102706.00;4943174;28;20145;-43
2024/01/20 03:14:16;;;;;;;16.85;10.70;;;;;;;16.09;40.36;102708.13;4945383;28;20455;-44
2024/01/20 03:16:42;;;;;;;14.38;9.05;;;;;;;16.04;40.72;102708.41;4942918;29;20055;-43
2024/01/20 03:19:09;;;;;;;14.02;9.10;;;;;;;15.98;40.89;102702.56;4943763;28;20115;-43
2024/01/20 03:21:35;;;;;;;15.32;8.85;;;;;;;15.93;40.89;102707.34;4941021;29;20492;-43
2024/01/20 03:24:02;;;;;;;14.60;9.55;;;;;;;15.89;40.72;102713.84;4943005;28;20055;-43
2024/01/20 03:26:29;;;;;;;12.63;9.07;;;;;;;15.83;40.69;102716.88;4946148;28;20348;-42
2024/01/20 03:28:55;;;;;;;12.20;8.85;;;;;;;15.76;40.96;102722.59;4926727;29;20051;-43
2024/01/20 03:31:22;;;;;;;14.93;10.07;;;;;;;15.72;40.39;102722.91;4947634;28;20166;-42
2024/01/20 03:33:49;;;;;;;15.63;9.50;;;;;;;15.66;41.15;102720.56;4945878;29;20051;-43
2024/01/20 03:36:15;;;;;;;13.93;8.93;;;;;;;15.61;40.23;102704.78;4945286;29;20059;-43
2024/01/20 03:38:42;;;;;;;13.40;9.55;;;;;;;15.54;40.89;102708.78;4949654;28;20075;-43
2024/01/20 03:41:09;;;;;;;13.88;9.65;;;;;;;15.50;41.46;102713.44;4942814;29;20066;-43
2024/01/20 03:43:35;;;;;;;13.60;8.95;;;;;;;15.46;41.02;102719.06;4947856;28;20097;-43
2024/01/20 03:46:02;;;;;;;12.75;8.82;;;;;;;15.48;40.65;102717.16;4941385;29;20051;-43
2024/01/20 03:48:29;;;;;;;13.43;8.75;;;;;;;15.52;41.18;102716.03;4943234;29;20107;-42
2024/01/20 03:50:56;;;;;;;12.75;8.50;;;;;;;15.58;41.58;102718.31;4946447;28;20091;-43
2024/01/20 03:53:23;;;;;;;14.40;9.52;;;;;;;15.66;41.05;102715.22;4950528;29;20130;-43
2024/01/20 03:55:49;;;;;;;13.10;9.00;;;;;;;15.72;41.05;102723.75;4949346;28;20053;-43
2024/01/20 03:58:16;;;;;;;11.82;9.13;;;;;;;15.81;41.06;102713.44;4946912;28;20067;-44
2024/01/20 04:00:43;;;;;;;13.45;9.32;;;;;;;15.87;41.02;102721.94;4949432;29;20063;-43
2024/01/20 04:03:10;;;;;;;13.00;9.00;;;;;;;15.93;40.96;102718.03;4946901;28;20130;-44
2024/01/20 04:05:39;;;;;;;13.27;8.82;;;;;;;15.98;39.89;102724.81;4940601;29;20171;-42
2024/01/20 04:08:06;;;;;;;11.05;7.97;;;;;;;16.02;40.82;102722.81;4946442;29;20102;-43
2024/01/20 04:10:32;;;;;;;14.32;8.93;;;;;;;16.02;40.46;102729.03;4946075;29;20051;-42
2024/01/20 04:12:59;;;;;;;12.57;8.75;;;;;;;15.98;40.14;102711.44;4947578;29;20061;-43
2024/01/20 04:15:25;;;;;;;12.57;8.30;;;;;;;15.94;40.20;102717.94;4944148;29;20055;-43
2024/01/20 04:17:52;;;;;;;12.75;8.40;;;;;;;15.89;40.64;102722.72;4945559;29;20312;-42
2024/01/20 04:20:19;;;;;;;13.75;8.77;;;;;;;15.86;41.02;102719.38;4946330;29;20054;-43
2024/01/20 04:22:46;;;;;;;10.77;7.55;;;;;;;15.83;40.79;102730.25;4951154;29;20051;-43
2024/01/20 04:25:12;;;;;;;11.43;8.35;;;;;;;15.78;40.95;102731.38;4945256;28;20452;-43
2024/01/20 04:27:40;;;;;;;11.38;8.10;;;;;;;15.73;39.99;102738.81;4947907;29;20398;-43
2024/01/20 04:30:09;;;;;;;12.02;8.60;;;;;;;15.69;40.83;102734.63;4943448;29;20059;-41
2024/01/20 04:32:36;;;;;;;14.65;8.85;;;;;;;15.64;41.16;102735.78;4947607;28;20047;-42
2024/01/20 04:35:04;;;;;;;13.63;8.60;;;;;;;15.59;40.86;102745.91;4947841;28;20356;-42
2024/01/20 04:37:30;;;;;;;12.88;8.52;;;;;;;15.54;41.38;102746.19;4948672;28;20051;-42
2024/01/20 04:39:59;;;;;;;12.02;8.48;;;;;;;15.50;41.16;102740.16;4948462;28;20047;-41
2024/01/20 04:42:25;;;;;;;13.18;8.45;;;;;;;15.46;40.78;102740.44;4943970;29;20066;-42
2024/01/20 04:44:52;;;;;;;11.70;7.88;;;;;;;15.43;40.52;102738.78;4944338;28;20051;-42
2024/01/20 04:47:19;;;;;;;10.60;7.82;;;;;;;15.39;40.88;102729.22;4948978;29;20451;-42
2024/01/20 04:49:45;;;;;;;12.15;8.00;;;;;;;15.36;41.12;102744.63;4947510;28;20054;-42
2024/01/20 04:52:12;;;;;;;14.63;8.82;;;;;;;15.36;41.27;102733.94;4946181;29;20062;-43
2024/01/20 04:54:38;;;;;;;13.02;8.60;;;;;;;15.28;40.62;102740.56;4947078;29;20111;-41
2024/01/20 04:57:05;;;;;;;13.68;8.13;;;;;;;15.28;41.38;102739.72;4949793;29;20048;-42
2024/01/20 04:59:32;;;;;;;12.10;7.90;;;;;;;15.35;40.62;102737.53;4949920;28;20200;-42
2024/01/20 05:01:58;;;;;;;14.10;8.30;;;;;;;15.42;40.59;102741.56;4941589;29;20067;-42
2024/01/20 05:04:25;;;;;;;10.15;7.13;;;;;;;15.50;40.72;102747.31;4943733;29;20463;-43
2024/01/20 05:06:51;;;;;;;11.30;7.78;;;;;;;15.58;40.26;102757.56;4947436;29;20672;-42
2024/01/20 05:09:18;;;;;;;11.27;7.80;;;;;;;15.67;40.49;102762.38;4946928;29;20331;-43
2024/01/20 05:11:45;;;;;;;11.75;7.50;;;;;;;15.73;40.84;102762.88;4948325;28;20079;-42
2024/01/20 05:14:11;;;;;;;11.73;8.55;;;;;;;15.80;40.09;102760.72;4944718;29;20054;-42
2024/01/20 05:16:38;;;;;;;10.50;7.22;;;;;;;15.85;40.00;102761.28;4942837;29;20071;-42
2024/01/20 05:19:05;;;;;;;11.63;8.45;;;;;;;15.88;40.05;102761.13;4943316;29;20055;-42
2024/01/20 05:21:32;;;;;;;11.57;7.80;;;;;;;15.90;40.11;102763.69;4948898;29;20040;-42
2024/01/20 05:23:59;;;;;;;10.45;7.53;;;;;;;15.86;40.77;102755.00;4943775;29;20121;-43
2024/01/20 05:26:26;;;;;;;10.63;7.53;;;;;;;15.82;39.79;102756.13;4943541;29;20047;-42
2024/01/20 05:28:52;;;;;;;10.13;7.38;;;;;;;15.78;39.74;102754.59;4942263;29;20047;-42
2024/01/20 05:31:20;;;;;;;10.68;7.53;;;;;;;15.74;40.81;102764.59;4943262;29;20079;-42
2024/01/20 05:33:47;;;;;;;12.52;7.75;;;;;;;15.70;39.90;102762.22;4945700;29;20699;-42
2024/01/20 05:36:13;;;;;;;11.80;7.72;;;;;;;15.65;39.92;102761.63;4945043;28;20412;-42
2024/01/20 05:38:40;;;;;;;10.77;7.75;;;;;;;15.61;39.89;102768.94;4944415;29;20043;-42
2024/01/20 05:41:08;;;;;;;10.55;7.10;;;;;;;15.56;40.28;102765.69;4945495;28;20062;-42
2024/01/20 05:43:36;;;;;;;11.77;7.85;;;;;;;15.51;40.60;102765.91;4945718;29;20053;-42
2024/01/20 05:46:06;;;;;;;12.40;8.30;;;;;;;15.48;40.73;102759.94;4946438;29;20102;-42
2024/01/20 05:48:35;;;;;;;11.40;7.57;;;;;;;15.43;40.75;102762.84;4946292;28;20435;-43
2024/01/20 05:51:02;;;;;;;11.73;7.90;;;;;;;15.39;40.93;102766.66;4946898;29;20422;-43
2024/01/20 05:53:29;;;;;;;11.30;7.50;;;;;;;15.36;40.07;102771.34;4944929;28;20061;-42
2024/01/20 05:55:55;;;;;;;11.18;7.50;;;;;;;15.31;41.25;102775.09;4944584;29;20047;-43
2024/01/20 05:58:22;;;;;;;11.25;7.65;;;;;;;15.28;41.29;102771.78;4939101;29;20078;-43
2024/01/20 06:00:49;;;;;;;11.88;7.57;;;;;;;15.26;40.68;102771.84;4945207;28;20327;-42
2024/01/20 06:03:16;;;;;;;10.55;7.63;;;;;;;15.23;40.22;102774.69;4945932;28;20102;-42
2024/01/20 06:05:42;;;;;;;11.07;7.25;;;;;;;15.25;40.95;102786.16;4947748;28;20054;-43
2024/01/20 06:08:09;;;;;;;11.75;7.20;;;;;;;15.33;41.34;102788.38;4948794;29;20055;-43
2024/01/20 06:10:36;;;;;;;12.13;7.35;;;;;;;15.40;40.37;102776.41;4945892;29;20051;-42
2024/01/20 06:13:02;;;;;;;9.63;6.85;;;;;;;15.46;40.13;102776.03;4945737;28;20084;-44
2024/01/20 06:15:29;;;;;;;10.95;7.35;;;;;;;15.52;40.85;102775.69;4942917;29;20458;-43
2024/01/20 06:17:56;;;;;;;12.15;7.82;;;;;;;15.58;40.35;102782.47;4942542;29;20118;-42
2024/01/20 06:20:22;;;;;;;10.32;7.30;;;;;;;15.61;39.89;102782.28;4944578;28;20315;-42
2024/01/20 06:22:49;;;;;;;10.73;7.07;;;;;;;15.65;40.40;102781.19;4946329;28;20102;-42
2024/01/20 06:25:16;;;;;;;11.75;7.45;;;;;;;15.67;40.73;102789.13;4948058;29;20075;-42
2024/01/20 06:27:42;;;;;;;9.15;6.38;;;;;;;15.67;39.74;102784.63;4941770;29;20134;-43
2024/01/20 06:30:09;;;;;;;11.93;6.95;;;;;;;15.67;40.66;102773.94;4942217;29;20048;-43
2024/01/20 06:32:36;;;;;;;11.32;7.30;;;;;;;15.64;40.73;102776.78;4941311;29;20083;-43
2024/01/20 06:35:03;;;;;;;10.88;7.45;;;;;;;15.60;40.76;102785.94;4926893;29;20139;-43
2024/01/20 06:37:30;;;;;;;10.10;7.63;;;;;;;15.55;40.61;102790.66;4942893;28;20079;-42
2024/01/20 06:39:56;;;;;;;9.75;6.53;;;;;;;15.52;40.57;102790.88;4945078;28;20059;-42
2024/01/20 06:42:23;;;;;;;10.80;7.00;;;;;;;15.49;40.86;102796.38;4944283;29;20113;-42
2024/01/20 06:44:49;;;;;;;11.38;6.90;;;;;;;15.45;40.21;102795.69;4940286;28;20428;-43
2024/01/20 06:47:16;;;;;;;10.02;7.28;;;;;;;15.41;40.13;102791.47;4938469;28;20337;-43
2024/01/20 06:49:49;;;;;;;9.13;6.50;;;;;;;15.38;40.91;102796.13;4942039;29;20106;-42
2024/01/20 06:52:16;;;;;;;11.85;6.80;;;;;;;15.33;40.63;102798.22;4941220;29;20530;-43
2024/01/20 06:54:43;;;;;;;11.88;7.30;;;;;;;15.28;40.22;102802.00;4944408;28;20106;-42
2024/01/20 06:57:09;;;;;;;11.63;7.70;;;;;;;15.25;40.89;102798.66;4943908;29;20047;-43
2024/01/20 06:59:37;;;;;;;10.05;6.85;;;;;;;15.20;40.29;102801.59;4942696;28;20493;-43
2024/01/20 07:02:03;;;;;;;11.48;7.00;;;;;;;15.17;40.80;102801.75;4945932;28;20463;-42
2024/01/20 07:04:30;;;;;;;10.93;7.25;;;;;;;15.15;40.50;102797.44;4948049;28;20055;-42
2024/01/20 07:06:57;;;;;;;10.02;7.07;;;;;;;15.12;40.20;102805.66;4947898;28;20164;-42
2024/01/20 07:09:25;;;;;;;11.40;7.70;;;;;;;15.08;40.06;102804.97;4943837;28;20135;-42
2024/01/20 07:11:55;;;;;;;11.10;7.38;;;;;;;15.00;40.29;102813.41;4942717;29;20047;-42
2024/01/20 07:14:23;;;;;;;13.23;8.27;;;;;;;14.93;40.42;102806.66;4945310;29;20060;-42
2024/01/20 07:16:50;;;;;;;10.88;7.38;;;;;;;14.87;40.17;102817.66;4946649;29;20059;-42
2024/01/20 07:19:17;;;;;;;9.65;6.57;;;;;;;14.77;40.89;102814.66;4947610;28;20339;-42
2024/01/20 07:21:43;;;;;;;11.48;7.30;;;;;;;14.70;40.48;102799.91;4948539;28;20062;-41
2024/01/20 07:24:10;;;;;;;12.15;7.35;;;;;;;14.63;41.20;102811.88;4945482;28;20328;-42
2024/01/20 07:26:37;;;;;;;11.65;8.30;;;;;;;14.56;41.37;102810.50;4946330;29;20058;-42
2024/01/20 07:29:03;;;;;;;10.38;7.35;;;;;;;14.50;40.61;102814.34;4947748;28;20487;-42
2024/01/20 07:31:30;;;;;;;11.32;7.72;;;;;;;14.43;41.48;102812.94;4947334;28;20054;-42
2024/01/20 07:33:57;;;;;;;10.05;6.90;;;;;;;14.33;41.58;102809.00;4948720;29;20439;-42
2024/01/20 07:36:23;;;;;;;9.90;6.78;;;;;;;14.27;41.23;102807.56;4947244;29;20114;-44
2024/01/20 07:38:50;;;;;;;11.80;7.95;;;;;;;14.21;41.01;102815.00;4944268;29;20047;-42
2024/01/20 07:41:18;;;;;;;11.30;7.82;;;;;;;14.16;41.11;102822.38;4946324;28;20505;-41
2024/01/20 07:43:44;;;;;;;11.52;7.57;;;;;;;14.08;41.43;102825.44;4948989;28;20143;-42
2024/01/20 07:46:12;;;;;;;11.18;6.93;;;;;;;14.00;41.95;102823.16;4947028;28;20094;-42
2024/01/20 07:48:39;;;;;;;11.63;7.78;;;;;;;13.95;41.93;102824.31;4949001;28;20129;-42
2024/01/20 07:51:07;;;;;;;12.60;8.35;;;;;;;13.91;41.82;102822.75;4946967;29;20051;-42
2024/01/20 07:53:34;;;;;;;14.77;8.75;;;;;;;13.87;42.01;102821.19;4946359;29;20129;-42
2024/01/20 07:56:00;;;;;;;12.98;7.78;;;;;;;13.82;42.12;102821.44;4945292;29;20064;-42
2024/01/20 07:58:27;;;;;;;13.90;7.97;;;;;;;13.77;42.06;102821.66;4945313;29;20178;-42
2024/01/20 08:00:53;;;;;;;10.65;6.85;;;;;;;13.73;42.62;102829.91;4946644;28;20070;-41
2024/01/20 08:03:20;;;;;;;11.70;8.63;;;;;;;13.71;42.03;102832.66;4946184;28;20047;-42
2024/01/20 08:05:47;;;;;;;10.07;6.47;;;;;;;13.66;42.80;102833.81;4945395;29;20051;-42
2024/01/20 08:08:14;;;;;;;12.13;7.95;;;;;;;13.63;42.93;102840.16;4945540;28;20137;-42
2024/01/20 08:10:40;;;;;;;12.10;7.68;;;;;;;13.62;42.77;102849.06;4941982;29;20047;-42
2024/01/20 08:13:07;;;;;;;9.85;7.25;;;;;;;13.61;42.74;102846.50;4945813;29;20090;-41
2024/01/20 08:15:33;;;;;;;11.18;7.43;;;;;;;13.58;42.72;102852.81;4945591;29;20051;-42
2024/01/20 08:18:00;;;;;;;11.40;8.30;;;;;;;13.56;42.88;102849.38;4943816;29;20082;-42
2024/01/20 08:20:27;;;;;;;11.73;7.95;;;;;;;13.54;43.18;102843.25;4950798;29;20047;-42
2024/01/20 08:22:54;;;;;;;9.70;7.00;;;;;;;13.53;42.45;102853.06;4945549;29;20048;-42
2024/01/20 08:25:20;;;;;;;11.55;7.50;;;;;;;13.51;43.03;102851.44;4945281;29;20126;-42
2024/01/20 08:27:47;;;;;;;12.38;7.65;;;;;;;13.49;42.80;102855.94;4946046;29;20079;-42
2024/01/20 08:30:14;;;;;;;12.10;8.55;;;;;;;13.48;42.83;102859.56;4946723;29;20055;-42
2024/01/20 08:32:41;;;;;;;11.50;7.43;;;;;;;13.45;42.61;102859.69;4945789;28;20055;-42
2024/01/20 08:35:10;;;;;;;11.50;8.27;;;;;;;13.43;43.12;102858.94;4946934;29;20057;-41
2024/01/20 08:37:36;;;;;;;10.25;7.45;;;;;;;13.42;43.00;102865.16;4945707;28;20051;-42
2024/01/20 08:40:03;;;;;;;13.55;8.18;;;;;;;13.40;43.27;102862.59;4946266;28;20143;-41
2024/01/20 08:42:30;;;;;;;12.73;7.90;;;;;;;13.37;43.31;102872.53;4943090;29;20139;-42
2024/01/20 08:44:56;;;;;;;12.77;8.50;;;;;;;13.35;43.21;102867.28;4944138;29;20078;-42
2024/01/20 08:47:23;;;;;;;11.05;7.82;;;;;;;13.33;43.29;102869.16;4942776;28;20055;-41
2024/01/20 08:49:51;;;;;;;15.27;9.45;;;;;;;13.32;43.16;102870.94;4946869;28;20069;-41
2024/01/20 08:52:19;;;;;;;13.15;8.48;;;;;;;13.34;43.25;102882.38;4944111;29;20059;-42
2024/01/20 08:54:46;;;;;;;13.00;8.40;;;;;;;13.36;43.51;102881.47;4946798;29;20741;-41
2024/01/20 08:57:13;;;;;;;13.88;9.07;;;;;;;13.35;43.45;102885.94;4945447;29;20055;-42
2024/01/20 08:59:40;;;;;;;13.52;8.88;;;;;;;13.34;43.65;102887.69;4946098;28;20054;-42
2024/01/20 09:02:07;;;;;;;14.43;9.70;;;;;;;13.31;43.65;102893.19;4946257;29;20056;-41
2024/01/20 09:04:34;;;;;;;15.00;9.00;;;;;;;13.31;42.93;102885.22;4946735;29;20277;-42
2024/01/20 09:07:01;;;;;;;13.15;8.95;;;;;;;13.30;43.52;102890.59;4944294;28;20083;-42
2024/01/20 09:09:28;;;;;;;13.48;9.25;;;;;;;13.30;43.74;102890.59;4943443;28;20043;-42
2024/01/20 09:11:55;;;;;;;14.27;9.98;;;;;;;13.29;43.21;102889.72;4946269;28;20051;-42
2024/01/20 09:14:22;;;;;;;17.17;10.23;;;;;;;13.31;43.44;102890.53;4947389;28;20138;-41
2024/01/20 09:16:48;;;;;;;13.98;9.32;;;;;;;13.32;43.23;102904.72;4943511;29;20421;-42
2024/01/20 09:19:15;;;;;;;14.05;8.88;;;;;;;13.33;43.39;102901.97;4944958;29;20074;-42
2024/01/20 09:21:46;;;;;;;14.25;9.25;;;;;;;13.34;43.51;102909.00;4943445;29;20110;-42
2024/01/20 09:24:13;;;;;;;14.85;9.35;;;;;;;13.34;43.42;102893.03;4943677;28;20062;-42
2024/01/20 09:26:40;;;;;;;14.68;9.63;;;;;;;13.37;43.67;102904.50;4946779;29;20054;-41
2024/01/20 09:29:07;;;;;;;16.40;10.10;;;;;;;13.37;43.79;102901.81;4945028;29;20391;-41
2024/01/20 09:31:33;;;;;;;16.25;10.55;;;;;;;13.34;43.28;102897.50;4939899;29;20482;-42
2024/01/20 09:34:00;;;;;;;16.05;10.32;;;;;;;13.34;43.45;102908.16;4940596;29;20314;-42
2024/01/20 09:36:27;;;;;;;17.17;10.90;;;;;;;13.33;43.25;102906.44;4945448;29;20048;-42
2024/01/20 09:38:54;;;;;;;15.93;10.45;;;;;;;13.33;43.14;102899.28;4940617;29;20069;-40
2024/01/20 09:41:21;;;;;;;13.70;9.38;;;;;;;13.34;43.55;102905.47;4942787;28;20138;-42
2024/01/20 09:43:48;;;;;;;13.77;9.85;;;;;;;13.36;43.37;102894.78;4943286;28;20117;-42
2024/01/20 09:46:23;;;;;;;15.65;10.38;;;;;;;13.36;43.45;102911.63;5056132;28;20748;-34
2024/01/20 09:48:55;;;;;;;16.13;10.73;;;;;;;13.36;43.43;102919.59;5055837;28;20178;-35
2024/01/20 09:51:28;;;;;;;14.60;10.10;;;;;;;13.36;43.35;102921.41;5055902;28;20103;-34
2024/01/20 09:54:01;;;;;;;15.35;10.07;;;;;;;13.39;43.61;102916.81;5057856;28;20049;-33
2024/01/20 09:56:28;;;;;;;16.30;10.45;;;;;;;13.42;43.36;102915.78;5020217;28;21387;-34
2024/01/20 09:58:59;;;;;;;17.80;11.50;;;;;;;13.50;43.84;102925.13;5036219;28;20057;-34
2024/01/20 10:01:27;;;;;;;18.20;11.93;;;;;;;13.56;43.78;102921.31;5015120;28;20050;-34
2024/01/20 10:03:58;;;;;;;17.55;11.75;;;;;;;13.63;43.89;102921.88;5017893;28;20045;-34
2024/01/20 10:06:26;;;;;;;18.27;12.73;;;;;;;13.68;43.00;102927.88;5016890;28;20401;-34
2024/01/20 10:08:53;;;;;;;26.23;15.75;;;;;;;13.77;44.07;102935.41;5014211;28;20072;-34
2024/01/20 10:11:20;;;;;;;28.50;18.33;;;;;;;13.85;43.89;102917.25;5017140;28;20447;-34
2024/01/20 10:13:47;;;;;;;35.17;20.98;;;;;;;13.94;44.02;102922.09;5014437;28;20152;-35
2024/01/20 10:16:14;;;;;;;39.28;22.35;;;;;;;14.01;44.30;102920.00;4988781;28;20068;-35
2024/01/20 10:18:40;;;;;;;38.50;22.55;;;;;;;14.08;44.27;102932.09;5003378;28;20064;-34
2024/01/20 10:21:07;;;;;;;43.85;26.25;;;;;;;14.14;43.99;102937.13;5015371;28;20331;-34
2024/01/20 10:23:37;;;;;;;33.65;22.17;;;;;;;14.17;44.11;102928.97;5015865;28;20061;-34
2024/01/20 10:26:05;;;;;;;40.00;24.75;;;;;;;14.22;44.01;102940.25;5018200;28;20136;-34
2024/01/20 10:28:33;;;;;;;41.45;25.67;;;;;;;14.28;44.02;102937.28;5016129;28;20049;-35
2024/01/20 10:31:08;;;;;;;39.90;24.83;;;;;;;14.36;44.54;102936.03;5015657;28;20438;-34
2024/01/20 10:33:35;;;;;;;40.28;24.48;;;;;;;14.40;43.48;102927.81;5015346;28;20053;-34
2024/01/20 10:36:03;;;;;;;42.22;24.38;;;;;;;14.44;43.27;102918.69;5015642;28;20341;-34
2024/01/20 10:38:36;;;;;;;36.72;23.48;;;;;;;14.48;43.92;102928.28;4992178;28;20076;-34
2024/01/20 10:41:07;;;;;;;38.75;23.63;;;;;;;14.53;43.62;102939.59;5018882;28;20046;-35
2024/01/20 10:43:39;;;;;;;33.53;21.25;;;;;;;14.56;42.96;102936.78;5013656;28;20061;-35
2024/01/20 10:46:22;;;;;;;32.50;20.27;;;;;;;14.58;42.77;102942.03;5015940;28;20060;-35
2024/01/20 10:48:53;;;;;;;33.63;20.55;;;;;;;14.59;42.89;102933.06;5015932;28;20295;-35
2024/01/20 10:51:27;;;;;;;29.92;19.90;;;;;;;14.60;42.55;102933.94;5015750;28;20049;-35
2024/01/20 10:53:57;;;;;;;30.25;19.38;;;;;;;14.60;42.71;102940.16;5017110;28;20214;-35
2024/01/20 10:56:24;;;;;;;30.83;19.13;;;;;;;14.65;43.17;102931.91;4984043;28;20493;-36
2024/01/20 10:59:12;;;;;;;32.60;20.73;;;;;;;14.69;42.90;102945.00;4989456;28;20061;-36
2024/01/20 11:01:45;;;;;;;29.13;18.58;;;;;;;14.73;42.62;102943.91;4997570;28;20049;-35
2024/01/20 11:04:18;;;;;;;31.17;18.83;;;;;;;14.77;42.16;102948.13;5002175;28;20068;-35
2024/01/20 11:06:45;;;;;;;27.38;18.55;;;;;;;14.79;42.27;102940.91;5003875;28;20045;-35
2024/01/20 11:09:21;;;;;;;30.40;18.40;;;;;;;14.83;42.71;102930.91;5003442;28;20056;-35
2024/01/20 11:12:20;;;;;;;28.85;17.38;;;;;;;14.86;42.62;102935.22;5002544;28;20140;-35
2024/01/20 11:14:56;;;;;;;27.17;17.27;;;;;;;14.91;42.22;102938.50;4989929;28;20137;-35
2024/01/20 11:17:23;;;;;;;23.52;15.95;;;;;;;14.94;41.38;102925.00;4969351;28;20175;-36